NCAR-RAP Real-Time Weather Data

Output produced by METARs form (10 April 2020  07:27 UTC)
found at http://weather.rap.ucar.edu/surface/
 
KGUY 100653Z AUTO 00000KT 10SM CLR 06/M02 A3015 RMK AO2 SLP193 T00611017
KGUY 100553Z AUTO 13003KT 10SM CLR 07/M02 A3014 RMK AO2 SLP192 T00721017 10167 20072 401830050 51011
KGUY 100453Z AUTO 12005KT 10SM CLR 08/M01 A3014 RMK AO2 SLP192 T00781011
KGUY 100353Z AUTO 09011KT 10SM CLR 10/M01 A3013 RMK AO2 SLP185 T01001011
KGUY 100253Z AUTO 07013KT 10SM CLR 11/M01 A3011 RMK AO2 SLP181 T01111006 53022
KGUY 100153Z AUTO 08009KT 10SM CLR 13/M01 A3007 RMK AO2 SLP167 T01331006
KGUY 100053Z AUTO 07013KT 10SM CLR 15/M01 A3005 RMK AO2 SLP162 T01501006
KGUY 092353Z AUTO 06016G21KT 10SM CLR 17/M01 A3004 RMK AO2 SLP153 T01671006 10183 20139 55007
KGUY 092253Z AUTO 09010G16KT 10SM CLR 18/01 A3003 RMK AO2 SLP148 T01780006
KGUY 092153Z AUTO 12011G16KT 10SM CLR 17/01 A3005 RMK AO2 SLP154 T01720011
KGUY 092053Z AUTO 11010KT 10SM CLR 17/02 A3006 RMK AO2 SLP158 T01720017 58022
KGUY 091953Z AUTO 11014G19KT 10SM CLR 18/02 A3009 RMK AO2 SLP165 T01780022
KGUY 091853Z AUTO 08014G18KT 10SM CLR 16/01 A3010 RMK AO2 SLP174 T01610011
KGUY 091753Z AUTO 10013G18KT 10SM CLR 14/00 A3013 RMK AO2 SLP180 T01440000 10144 20050 58001
KGUY 091653Z AUTO 10009KT 10SM CLR 13/00 A3015 RMK AO2 SLP188 T01330000
KGUY 091553Z AUTO 10011G18KT 10SM CLR 12/00 A3015 RMK AO2 SLP187 T01170000
KGUY 091453Z AUTO 09011G19KT 10SM CLR 10/01 A3014 RMK AO2 SLP180 T01000006 51008
KGUY 091353Z AUTO 06010KT 10SM CLR 08/01 A3013 RMK AO2 SLP180 T00830011
KGUY 091253Z AUTO 04008KT 10SM CLR 06/01 A3013 RMK AO2 SLP179 T00560011
KGUY 091153Z AUTO 02007KT 10SM CLR 06/01 A3011 RMK AO2 SLP168 T00610011 10133 20061 53020
KGUY 091053Z AUTO 05008KT 10SM CLR 07/02 A3008 RMK AO2 SLP155 T00720017
KGUY 090953Z AUTO 05008KT 10SM CLR 08/02 A3005 RMK AO2 SLP145 T00780022
KGUY 090853Z AUTO 04008KT 10SM CLR 08/03 A3004 RMK AO2 SLP140 T00830028 53013